Time;durP1;ratioP1;P1;durP2;ratioP2;P2;SDS_P1;SDS_P2;PMS_P1;PMS_P2;Temp;Humidity;BMP_temperature;BMP_pressure;BME280_temperature;BME280_humidity;BME280_pressure;Samples;Min_cycle;Max_cycle;Signal;HPM_P1;HPM_P2
2021/01/08 00:01:10;;;;;;;16.60;14.38;;;;;;;-0.53;82.46;98111.08;1805778;79;20916;-65
2021/01/08 00:03:40;;;;;;;14.80;13.00;;;;;;;-0.50;82.40;98112.31;1805750;79;20909;-65
2021/01/08 00:06:08;;;;;;;14.95;12.98;;;;;;;-0.47;82.33;98125.84;1805680;79;21354;-66
2021/01/08 00:08:36;;;;;;;14.73;13.18;;;;;;;-0.45;82.28;98118.30;1805624;79;20924;-66
2021/01/08 00:11:03;;;;;;;17.05;13.98;;;;;;;-0.42;82.33;98117.36;1805729;79;20984;-66
2021/01/08 00:13:31;;;;;;;17.27;15.08;;;;;;;-0.37;82.26;98118.94;1805685;79;20929;-65
2021/01/08 00:15:59;;;;;;;17.25;14.38;;;;;;;-0.34;82.23;98110.55;1805767;79;21478;-65
2021/01/08 00:18:26;;;;;;;15.90;14.07;;;;;;;-0.32;82.18;98117.95;1805789;79;22323;-65
2021/01/08 00:20:54;;;;;;;18.42;14.98;;;;;;;-0.31;82.14;98121.86;1805856;79;20976;-65
2021/01/08 00:23:22;;;;;;;16.02;14.03;;;;;;;-0.28;82.03;98118.28;1805874;79;20929;-65
2021/01/08 00:25:52;;;;;;;15.78;14.13;;;;;;;-0.26;82.00;98125.69;1805799;79;20900;-65
2021/01/08 00:28:20;;;;;;;14.70;13.13;;;;;;;-0.25;82.04;98120.36;1805983;79;20869;-65
2021/01/08 00:30:47;;;;;;;17.57;13.98;;;;;;;-0.24;82.03;98118.11;1805867;79;21369;-66
2021/01/08 00:33:15;;;;;;;15.93;14.25;;;;;;;-0.22;81.88;98122.02;1805809;79;21000;-65
2021/01/08 00:35:42;;;;;;;22.87;15.23;;;;;;;-0.18;81.71;98121.03;1805772;79;20972;-66
2021/01/08 00:38:11;;;;;;;15.28;13.68;;;;;;;-0.18;81.71;98118.39;1805779;78;21015;-67
2021/01/08 00:40:40;;;;;;;18.48;15.63;;;;;;;-0.14;81.69;98121.36;1805934;79;20869;-66
2021/01/08 00:43:07;;;;;;;19.48;15.78;;;;;;;-0.14;81.54;98122.67;1805840;79;21262;-66
2021/01/08 00:45:36;;;;;;;16.30;14.07;;;;;;;-0.11;81.28;98121.70;1805765;79;20925;-65
2021/01/08 00:48:04;;;;;;;13.70;11.83;;;;;;;-0.10;80.93;98126.93;1805832;78;20949;-66
2021/01/08 00:50:32;;;;;;;15.70;12.65;;;;;;;-0.09;80.60;98119.43;1805896;79;21441;-66
2021/01/08 00:53:00;;;;;;;16.65;12.88;;;;;;;-0.11;80.39;98118.63;1805824;79;20928;-66
2021/01/08 00:55:28;;;;;;;16.37;13.68;;;;;;;-0.11;80.24;98114.66;1805818;79;21194;-66
2021/01/08 00:57:57;;;;;;;16.02;14.20;;;;;;;-0.11;80.39;98119.05;1807199;79;20940;-65
2021/01/08 01:00:27;;;;;;;15.58;12.78;;;;;;;-0.11;80.62;98119.94;1814978;79;21342;-65
2021/01/08 01:02:54;;;;;;;17.80;14.47;;;;;;;-0.11;80.53;98123.91;1814893;79;20984;-65
2021/01/08 01:05:22;;;;;;;15.05;13.03;;;;;;;-0.12;80.25;98126.13;1814896;79;20976;-65
2021/01/08 01:07:49;;;;;;;15.63;13.28;;;;;;;-0.11;80.07;98125.22;1814928;79;21196;-65
2021/01/08 01:10:17;;;;;;;14.78;12.80;;;;;;;-0.09;80.12;98131.78;1814902;78;20924;-66
2021/01/08 01:12:45;;;;;;;17.30;14.65;;;;;;;-0.09;80.34;98126.50;1814942;79;21017;-66
2021/01/08 01:15:17;;;;;;;14.63;13.08;;;;;;;-0.08;80.59;98132.16;1814620;79;21003;-64
2021/01/08 01:17:45;;;;;;;14.75;12.55;;;;;;;-0.08;80.78;98127.77;1815024;79;21456;-66
2021/01/08 01:20:14;;;;;;;15.53;13.85;;;;;;;-0.07;80.90;98122.88;1814895;79;21380;-66
2021/01/08 01:22:41;;;;;;;16.60;13.35;;;;;;;-0.06;81.03;98123.30;1814876;79;21043;-67
2021/01/08 01:25:10;;;;;;;14.93;13.32;;;;;;;-0.06;81.15;98121.98;1814906;79;20928;-66
2021/01/08 01:27:38;;;;;;;15.50;13.28;;;;;;;-0.05;81.17;98117.12;1814871;79;21355;-65
2021/01/08 01:30:10;;;;;;;16.75;14.28;;;;;;;-0.03;81.16;98121.88;1815073;79;20916;-66
2021/01/08 01:32:38;;;;;;;19.35;14.43;;;;;;;-0.03;81.05;98133.77;1814922;79;21181;-65
2021/01/08 01:35:07;;;;;;;17.30;13.13;;;;;;;-0.02;80.78;98134.62;1814814;79;21014;-64
2021/01/08 01:37:35;;;;;;;15.88;13.50;;;;;;;-0.03;80.63;98128.48;1814860;79;20983;-66
2021/01/08 01:40:03;;;;;;;20.50;15.80;;;;;;;-0.03;80.55;98135.09;1814885;79;22000;-66
2021/01/08 01:42:31;;;;;;;21.33;15.60;;;;;;;-0.04;80.59;98126.75;1815038;79;21329;-66
2021/01/08 01:44:58;;;;;;;19.80;14.87;;;;;;;-0.05;80.63;98134.28;1814899;79;21350;-66
2021/01/08 01:47:27;;;;;;;24.55;17.20;;;;;;;-0.06;80.75;98127.26;1814799;78;20932;-66
2021/01/08 01:49:54;;;;;;;20.77;17.32;;;;;;;-0.05;80.84;98125.04;1814917;79;20991;-65
2021/01/08 01:52:22;;;;;;;23.50;16.70;;;;;;;-0.06;80.99;98125.94;1814840;79;21994;-65
2021/01/08 01:54:50;;;;;;;21.90;16.05;;;;;;;-0.05;81.10;98124.16;1814903;79;20900;-65
2021/01/08 01:57:17;;;;;;;18.57;15.55;;;;;;;-0.05;80.98;98122.83;1814864;79;21370;-64
2021/01/08 01:59:45;;;;;;;22.17;16.15;;;;;;;-0.03;80.91;98124.52;1826296;78;21496;-65
2021/01/08 02:02:29;;;;;;;21.45;16.40;;;;;;;-0.02;80.77;98115.70;1828779;78;20963;-66
2021/01/08 02:04:59;;;;;;;20.48;16.62;;;;;;;-0.02;80.73;98115.70;1828725;78;20900;-65
2021/01/08 02:07:26;;;;;;;18.50;16.07;;;;;;;-0.03;80.75;98111.33;1828777;78;20908;-66
2021/01/08 02:09:54;;;;;;;16.35;13.93;;;;;;;-0.04;80.73;98108.73;1828728;78;21362;-65
2021/01/08 02:12:23;;;;;;;16.75;14.25;;;;;;;-0.06;80.59;98110.09;1828697;78;20983;-65
2021/01/08 02:14:51;;;;;;;15.20;12.25;;;;;;;-0.08;80.56;98098.73;1828712;78;20920;-65
2021/01/08 02:17:19;;;;;;;20.05;14.38;;;;;;;-0.08;80.75;98103.13;1828788;78;20900;-65
2021/01/08 02:20:07;;;;;;;19.95;13.90;;;;;;;-0.13;80.89;98103.27;1828740;78;21485;-65
2021/01/08 02:23:09;;;;;;;16.42;13.03;;;;;;;-0.14;80.89;98105.52;1828845;78;21372;-64
2021/01/08 02:25:36;;;;;;;15.25;12.13;;;;;;;-0.19;80.98;98103.45;1828721;78;20916;-65
2021/01/08 02:28:20;;;;;;;16.30;13.90;;;;;;;-0.24;81.06;98106.23;1828727;78;20916;-66
2021/01/08 02:30:47;;;;;;;19.48;14.63;;;;;;;-0.26;81.22;98104.56;1828915;78;20912;-66
2021/01/08 02:33:14;;;;;;;19.75;15.15;;;;;;;-0.26;81.46;98108.53;1828758;78;20975;-66
2021/01/08 02:35:43;;;;;;;20.05;14.85;;;;;;;-0.26;81.56;98107.20;1828679;78;21192;-66
2021/01/08 02:38:13;;;;;;;14.30;12.15;;;;;;;-0.27;81.61;98094.48;1828632;78;20928;-66
2021/01/08 02:40:40;;;;;;;19.35;14.35;;;;;;;-0.26;81.42;98102.78;1828832;78;21369;-65
2021/01/08 02:43:08;;;;;;;18.30;14.85;;;;;;;-0.25;81.37;98099.70;1828629;78;20900;-66
2021/01/08 02:45:37;;;;;;;17.92;12.95;;;;;;;-0.25;81.33;98097.07;1828758;78;20904;-66
2021/01/08 02:48:05;;;;;;;16.27;13.32;;;;;;;-0.24;81.47;98100.95;1828703;78;21346;-65
2021/01/08 02:50:33;;;;;;;17.23;13.08;;;;;;;-0.23;81.46;98099.20;1828723;78;21433;-66
2021/01/08 02:53:05;;;;;;;17.37;13.90;;;;;;;-0.23;81.52;98101.84;1828642;78;21022;-68
2021/01/08 02:55:33;;;;;;;17.48;14.10;;;;;;;-0.21;81.60;98102.64;1828704;78;20975;-66
2021/01/08 02:58:03;;;;;;;17.85;14.65;;;;;;;-0.20;81.77;98103.06;1828660;78;21034;-67
2021/01/08 03:00:31;;;;;;;16.67;13.72;;;;;;;-0.17;81.92;98099.45;1815003;78;22263;-66
2021/01/08 03:03:01;;;;;;;17.20;13.25;;;;;;;-0.15;81.85;98097.17;1814697;78;20920;-64
2021/01/08 03:05:30;;;;;;;17.30;13.28;;;;;;;-0.13;81.97;98095.34;1814597;78;20935;-65
2021/01/08 03:07:59;;;;;;;14.93;13.00;;;;;;;-0.08;82.04;98103.13;1814839;79;20908;-65
2021/01/08 03:10:26;;;;;;;15.75;13.48;;;;;;;-0.08;82.10;98098.73;1814928;79;20912;-65
2021/01/08 03:12:57;;;;;;;14.35;11.68;;;;;;;-0.04;82.10;98094.20;1814930;79;22265;-65
2021/01/08 03:15:25;;;;;;;14.45;11.73;;;;;;;-0.02;82.01;98093.26;1814924;79;20971;-65
2021/01/08 03:17:53;;;;;;;15.30;12.03;;;;;;;0.00;82.02;98101.13;1814814;79;21371;-66
2021/01/08 03:20:21;;;;;;;12.98;9.73;;;;;;;0.02;82.10;98091.38;1814789;79;20869;-65
2021/01/08 03:22:48;;;;;;;11.30;9.85;;;;;;;0.05;82.01;98102.28;1814919;79;21333;-65
2021/01/08 03:25:15;;;;;;;12.82;9.95;;;;;;;0.05;82.00;98100.95;1814855;79;21379;-65
2021/01/08 03:27:43;;;;;;;9.78;8.83;;;;;;;0.08;81.86;98107.03;1814794;79;20971;-65
2021/01/08 03:30:13;;;;;;;8.90;7.97;;;;;;;0.11;81.79;98112.65;1814887;79;21050;-66
2021/01/08 03:32:40;;;;;;;9.05;8.15;;;;;;;0.11;81.67;98111.33;1814794;79;20908;-65
2021/01/08 03:35:08;;;;;;;9.83;8.30;;;;;;;0.13;81.55;98112.16;1814797;79;20901;-65
2021/01/08 03:37:37;;;;;;;11.40;9.30;;;;;;;0.14;81.28;98109.48;1814916;79;22282;-65
2021/01/08 03:40:07;;;;;;;11.28;8.88;;;;;;;0.15;81.04;98101.09;1814795;79;20996;-64
2021/01/08 03:42:35;;;;;;;10.15;8.35;;;;;;;0.15;80.90;98101.09;1814862;79;20987;-65
2021/01/08 03:45:07;;;;;;;8.98;7.75;;;;;;;0.18;80.76;98110.23;1814819;78;20983;-65
2021/01/08 03:47:35;;;;;;;9.05;7.53;;;;;;;0.20;80.66;98112.36;1814813;79;20967;-65
2021/01/08 03:50:03;;;;;;;7.00;6.30;;;;;;;0.22;80.55;98114.52;1814789;79;21422;-65
2021/01/08 03:52:31;;;;;;;8.28;6.95;;;;;;;0.24;80.52;98114.47;1814718;79;21584;-66
2021/01/08 03:55:00;;;;;;;5.70;5.15;;;;;;;0.24;80.42;98115.79;1814846;79;20909;-65
2021/01/08 03:57:27;;;;;;;5.67;5.03;;;;;;;0.26;79.96;98122.73;1814873;79;20908;-66
2021/01/08 03:59:55;;;;;;;6.92;5.17;;;;;;;0.26;79.26;98116.59;1814667;79;20987;-65
2021/01/08 04:02:23;;;;;;;4.80;4.20;;;;;;;0.27;78.85;98116.98;1814799;79;21207;-64
2021/01/08 04:04:51;;;;;;;5.85;4.85;;;;;;;0.25;78.56;98111.74;1814738;79;21011;-66
2021/01/08 04:07:19;;;;;;;5.50;4.45;;;;;;;0.27;78.21;98115.22;1814846;78;20912;-66
2021/01/08 04:09:47;;;;;;;6.50;4.70;;;;;;;0.27;78.26;98120.51;1814780;79;20920;-66
2021/01/08 04:12:17;;;;;;;5.67;4.75;;;;;;;0.27;78.31;98119.19;1814806;79;20999;-65
2021/01/08 04:14:44;;;;;;;5.75;4.95;;;;;;;0.27;78.35;98124.47;1814911;79;22262;-65
2021/01/08 04:17:12;;;;;;;5.00;4.40;;;;;;;0.26;78.41;98125.37;1814728;79;21018;-66
2021/01/08 04:19:42;;;;;;;4.97;4.30;;;;;;;0.27;78.14;98132.83;1814513;78;21007;-65
2021/01/08 04:22:12;;;;;;;4.67;4.10;;;;;;;0.26;78.20;98124.52;1814758;79;21003;-67
2021/01/08 04:24:39;;;;;;;5.08;4.33;;;;;;;0.26;78.29;98124.05;1814863;79;20901;-65
2021/01/08 04:27:07;;;;;;;6.87;5.00;;;;;;;0.27;78.06;98127.11;1814800;79;23575;-66
2021/01/08 04:29:35;;;;;;;5.20;4.10;;;;;;;0.27;78.18;98120.51;1814781;79;20972;-66
2021/01/08 04:32:04;;;;;;;4.45;3.90;;;;;;;0.27;78.14;98128.43;1814767;79;20960;-66
2021/01/08 04:34:32;;;;;;;5.20;4.55;;;;;;;0.27;78.24;98131.08;1814781;79;21031;-67
2021/01/08 04:36:59;;;;;;;6.12;5.17;;;;;;;0.29;78.12;98132.34;1814862;79;20916;-67
2021/01/08 04:39:27;;;;;;;4.83;4.33;;;;;;;0.27;78.01;98135.03;1814690;79;21411;-64
2021/01/08 04:41:54;;;;;;;5.10;4.60;;;;;;;0.27;77.88;98142.96;1814775;79;21437;-67
2021/01/08 04:44:23;;;;;;;5.10;4.60;;;;;;;0.27;77.82;98131.08;1814712;78;20995;-65
2021/01/08 04:46:51;;;;;;;5.50;4.90;;;;;;;0.27;77.84;98133.72;1814803;79;20905;-66
2021/01/08 04:49:19;;;;;;;6.12;5.55;;;;;;;0.26;77.90;98130.66;1814832;79;21476;-66
2021/01/08 04:51:48;;;;;;;6.25;4.62;;;;;;;0.27;77.85;98135.03;1783601;79;21473;-66
2021/01/08 04:54:15;;;;;;;6.30;4.85;;;;;;;0.27;77.83;98132.39;1814746;79;21373;-64
2021/01/08 04:56:46;;;;;;;6.58;5.78;;;;;;;0.26;77.70;98139.90;1753273;79;20995;-65
2021/01/08 04:59:14;;;;;;;5.00;4.50;;;;;;;0.27;77.79;98149.56;1812475;79;21035;-66
2021/01/08 05:01:42;;;;;;;7.45;4.78;;;;;;;0.28;77.91;98158.34;1805680;79;21012;-66
2021/01/08 05:04:10;;;;;;;7.53;5.22;;;;;;;0.27;77.71;98157.48;1805812;79;21181;-65
2021/01/08 05:06:39;;;;;;;6.95;6.15;;;;;;;0.27;77.73;98156.17;1805790;79;20889;-65
2021/01/08 05:09:06;;;;;;;6.55;5.67;;;;;;;0.27;77.69;98159.25;1805686;79;20901;-65
2021/01/08 05:11:34;;;;;;;6.85;5.62;;;;;;;0.27;77.62;98162.77;1805817;79;20965;-65
2021/01/08 05:14:08;;;;;;;5.58;4.97;;;;;;;0.29;77.59;98154.80;1805901;79;20964;-65
2021/01/08 05:16:37;;;;;;;8.05;7.25;;;;;;;0.28;77.41;98148.63;1782267;79;21425;-65
2021/01/08 05:19:08;;;;;;;8.28;7.40;;;;;;;0.30;77.34;98154.75;1805658;79;21509;-66
2021/01/08 05:21:36;;;;;;;8.25;7.10;;;;;;;0.30;77.28;98147.27;1805777;79;20960;-65
2021/01/08 05:24:06;;;;;;;8.33;6.87;;;;;;;0.32;77.29;98157.34;1805774;79;20972;-65
2021/01/08 05:26:35;;;;;;;7.97;6.72;;;;;;;0.32;77.19;98153.38;1805959;79;20972;-66
2021/01/08 05:29:03;;;;;;;6.15;5.42;;;;;;;0.32;77.15;98150.74;1805829;79;22273;-64
2021/01/08 05:31:32;;;;;;;6.83;6.00;;;;;;;0.32;77.08;98144.14;1805752;79;20928;-64
2021/01/08 05:34:03;;;;;;;6.17;5.53;;;;;;;0.32;76.85;98163.48;1805747;79;20988;-65
2021/01/08 05:36:30;;;;;;;5.25;4.75;;;;;;;0.31;76.91;98159.57;1805777;79;20866;-66
2021/01/08 05:39:00;;;;;;;6.10;5.28;;;;;;;0.30;76.90;98161.36;1805657;79;20932;-66
2021/01/08 05:41:29;;;;;;;5.35;4.47;;;;;;;0.30;76.73;98160.03;1805891;79;21364;-65
2021/01/08 05:43:58;;;;;;;7.50;5.78;;;;;;;0.30;76.64;98165.75;1805766;79;21462;-65
2021/01/08 05:46:29;;;;;;;7.08;5.92;;;;;;;0.30;76.59;98164.00;1805747;79;20972;-66
2021/01/08 05:49:00;;;;;;;6.87;5.50;;;;;;;0.28;76.86;98156.55;1806075;79;21469;-66
2021/01/08 05:51:35;;;;;;;6.62;5.42;;;;;;;0.30;77.20;98162.68;1805825;79;21330;-65
2021/01/08 05:54:04;;;;;;;6.33;5.37;;;;;;;0.31;77.27;98161.74;1805831;79;21262;-65
2021/01/08 05:56:36;;;;;;;6.17;5.42;;;;;;;0.30;77.20;98154.75;1805732;79;20984;-65
2021/01/08 05:59:07;;;;;;;6.08;5.30;;;;;;;0.30;77.16;98157.83;1805984;79;20960;-65
2021/01/08 06:01:36;;;;;;;6.50;5.78;;;;;;;0.28;77.23;98160.98;1814922;79;21413;-66
2021/01/08 06:04:07;;;;;;;6.05;5.42;;;;;;;0.28;77.32;98164.48;1815023;78;20964;-66
2021/01/08 06:06:41;;;;;;;6.00;5.30;;;;;;;0.28;77.44;98168.91;1814883;79;21316;-66
2021/01/08 06:09:15;;;;;;;6.03;5.30;;;;;;;0.26;77.54;98167.64;1815032;79;21456;-66
2021/01/08 06:11:45;;;;;;;8.13;6.53;;;;;;;0.28;77.52;98169.77;1814926;79;20964;-65
2021/01/08 06:14:16;;;;;;;6.22;5.62;;;;;;;0.27;77.69;98169.38;1814950;79;21430;-66
2021/01/08 06:16:48;;;;;;;7.12;5.87;;;;;;;0.29;77.85;98176.79;1814907;79;20988;-65
2021/01/08 06:19:17;;;;;;;7.33;6.37;;;;;;;0.28;77.85;98175.05;1815116;79;21132;-65
2021/01/08 06:21:46;;;;;;;7.08;6.37;;;;;;;0.30;77.85;98169.72;1814891;79;20980;-65
2021/01/08 06:24:25;;;;;;;6.85;6.08;;;;;;;0.31;77.84;98173.63;1814851;79;20928;-65
2021/01/08 06:26:52;;;;;;;8.48;7.62;;;;;;;0.31;77.95;98176.27;1814827;79;20968;-65
2021/01/08 06:29:23;;;;;;;7.83;7.03;;;;;;;0.33;77.99;98177.11;1814508;79;21003;-65
2021/01/08 06:31:52;;;;;;;9.60;8.60;;;;;;;0.34;77.99;98180.14;1814692;79;22197;-65
2021/01/08 06:34:30;;;;;;;10.00;8.03;;;;;;;0.33;78.07;98169.19;1814572;79;20924;-65
2021/01/08 06:37:09;;;;;;;9.58;8.13;;;;;;;0.34;78.20;98161.64;1814926;79;20924;-65
2021/01/08 06:39:44;;;;;;;9.75;8.75;;;;;;;0.35;78.09;98152.81;1814759;79;20937;-64
2021/01/08 06:42:29;;;;;;;9.50;8.30;;;;;;;0.35;78.12;98163.39;1814488;79;21042;-66
2021/01/08 06:44:59;;;;;;;7.83;7.03;;;;;;;0.35;78.24;98163.39;1814727;79;21366;-66
2021/01/08 06:47:29;;;;;;;9.70;7.33;;;;;;;0.35;78.12;98166.03;1814860;79;20948;-65
2021/01/08 06:49:57;;;;;;;10.38;8.33;;;;;;;0.36;78.01;98173.48;1814937;79;20920;-64
2021/01/08 06:52:26;;;;;;;8.63;7.83;;;;;;;0.38;78.07;98165.52;1814789;78;20916;-66
2021/01/08 06:54:55;;;;;;;7.67;6.83;;;;;;;0.37;78.00;98164.66;1814899;79;20972;-65
2021/01/08 06:57:22;;;;;;;8.48;7.30;;;;;;;0.38;77.97;98165.52;1814873;79;21363;-65
2021/01/08 06:59:55;;;;;;;9.10;8.05;;;;;;;0.38;77.85;98164.19;1817602;78;20896;-64
2021/01/08 07:02:23;;;;;;;12.00;10.43;;;;;;;0.38;77.83;98163.76;1828952;78;21393;-64
2021/01/08 07:04:52;;;;;;;9.63;8.63;;;;;;;0.39;77.90;98165.93;1828670;78;20983;-65
2021/01/08 07:07:23;;;;;;;9.40;8.43;;;;;;;0.38;77.79;98165.08;1797279;78;20861;-64
2021/01/08 07:09:55;;;;;;;8.80;7.42;;;;;;;0.40;77.67;98168.99;1828724;78;21368;-65
2021/01/08 07:12:26;;;;;;;7.83;6.92;;;;;;;0.40;77.64;98166.35;1771185;78;20999;-65
2021/01/08 07:14:54;;;;;;;9.88;7.72;;;;;;;0.40;77.47;98166.35;1828633;78;21381;-65
2021/01/08 07:17:32;;;;;;;23.18;15.63;;;;;;;0.40;77.42;98158.42;1828692;78;20904;-65
2021/01/08 07:20:04;;;;;;;28.55;19.05;;;;;;;0.41;77.45;98161.45;1828730;78;20920;-65
2021/01/08 07:22:38;;;;;;;26.12;17.82;;;;;;;0.41;77.51;98167.62;1828700;78;21352;-66
2021/01/08 07:25:13;;;;;;;29.30;18.65;;;;;;;0.41;77.59;98164.98;1828622;78;20924;-65
2021/01/08 07:27:41;;;;;;;34.73;24.07;;;;;;;0.43;77.76;98174.18;1828916;78;20932;-65
2021/01/08 07:30:13;;;;;;;36.98;25.27;;;;;;;0.45;77.91;98176.31;1828673;78;21591;-65
2021/01/08 07:32:47;;;;;;;27.93;20.60;;;;;;;0.44;78.18;98174.56;1828673;78;21318;-66
2021/01/08 07:35:25;;;;;;;28.17;19.85;;;;;;;0.45;78.27;98178.95;1828657;78;21190;-67
2021/01/08 07:38:04;;;;;;;19.35;15.65;;;;;;;0.45;78.35;98178.95;1828618;78;20987;-65
2021/01/08 07:40:38;;;;;;;20.25;15.25;;;;;;;0.48;78.48;98180.17;1828751;78;21457;-65
2021/01/08 07:43:10;;;;;;;20.40;15.15;;;;;;;0.48;78.60;98182.34;1828686;78;20968;-65
2021/01/08 07:45:49;;;;;;;18.13;15.03;;;;;;;0.50;78.66;98180.52;1828914;78;20904;-66
2021/01/08 07:48:21;;;;;;;20.77;16.37;;;;;;;0.50;78.74;98179.66;1826286;78;21226;-66
2021/01/08 07:50:56;;;;;;;16.73;14.40;;;;;;;0.51;78.79;98189.33;1828656;78;20908;-66
2021/01/08 07:53:50;;;;;;;15.32;13.72;;;;;;;0.54;78.93;98195.84;1828696;78;20975;-66
2021/01/08 07:56:25;;;;;;;31.90;19.02;;;;;;;0.55;79.03;98190.94;1828762;78;21334;-66
2021/01/08 07:59:04;;;;;;;33.90;20.75;;;;;;;0.57;79.07;98194.42;1828604;78;21018;-66
2021/01/08 08:01:35;;;;;;;28.87;18.48;;;;;;;0.58;78.98;98188.20;1810343;78;21417;-65
2021/01/08 08:04:08;;;;;;;32.60;20.75;;;;;;;0.59;78.82;98187.30;1805674;79;20992;-65
2021/01/08 08:06:39;;;;;;;26.70;19.15;;;;;;;0.60;78.85;98186.39;1805781;79;21461;-65
2021/01/08 08:09:13;;;;;;;24.65;16.45;;;;;;;0.62;78.88;98181.91;1805746;79;21397;-65
2021/01/08 08:11:41;;;;;;;25.62;16.62;;;;;;;0.62;78.86;98179.27;1805521;79;21319;-66
2021/01/08 08:14:13;;;;;;;24.65;16.00;;;;;;;0.64;79.05;98177.42;1805696;79;21380;-65
2021/01/08 08:16:42;;;;;;;20.10;14.03;;;;;;;0.64;79.27;98172.14;1805673;79;20920;-64
2021/01/08 08:19:14;;;;;;;15.98;13.40;;;;;;;0.67;79.18;98173.83;1805604;79;20881;-66
2021/01/08 08:21:49;;;;;;;22.62;14.93;;;;;;;0.69;79.14;98174.20;1805838;79;20928;-66
2021/01/08 08:24:17;;;;;;;14.45;12.82;;;;;;;0.74;79.04;98178.45;1805860;79;20869;-65
2021/01/08 08:26:47;;;;;;;14.73;13.13;;;;;;;0.77;79.02;98180.99;1805343;79;21130;-66
2021/01/08 08:29:16;;;;;;;13.70;12.23;;;;;;;0.79;78.87;98185.76;1805613;79;20937;-65
2021/01/08 08:31:50;;;;;;;12.85;11.55;;;;;;;0.84;78.79;98197.07;1805639;79;20940;-66
2021/01/08 08:34:31;;;;;;;14.85;12.63;;;;;;;0.87;78.57;98197.83;1805773;79;21338;-65
2021/01/08 08:37:09;;;;;;;13.70;12.30;;;;;;;0.89;78.38;98200.42;1805818;79;21350;-66
2021/01/08 08:39:37;;;;;;;14.35;12.85;;;;;;;0.92;78.35;98198.14;1805790;79;21354;-66
2021/01/08 08:42:05;;;;;;;16.50;12.85;;;;;;;0.93;78.30;98200.73;1805819;79;20960;-66
2021/01/08 08:44:42;;;;;;;17.17;13.60;;;;;;;0.94;78.20;98203.77;1756161;79;20968;-66
2021/01/08 08:47:11;;;;;;;14.83;13.00;;;;;;;0.97;78.26;98199.70;1805856;79;20925;-65
2021/01/08 08:49:40;;;;;;;15.75;12.98;;;;;;;0.99;78.33;98206.25;1805786;79;21469;-64
2021/01/08 08:52:09;;;;;;;17.65;13.40;;;;;;;1.00;78.47;98214.14;1805891;79;21673;-67
2021/01/08 08:54:39;;;;;;;15.25;12.73;;;;;;;1.02;78.51;98210.97;1805782;79;20928;-65
2021/01/08 08:57:10;;;;;;;20.20;14.95;;;;;;;1.06;78.43;98210.44;1805813;79;20916;-65
2021/01/08 08:59:45;;;;;;;20.52;15.90;;;;;;;1.07;78.12;98206.42;1805779;79;20885;-65
2021/01/08 09:02:27;;;;;;;21.68;16.37;;;;;;;1.10;78.20;98211.19;1809375;79;21146;-66
2021/01/08 09:05:00;;;;;;;18.07;14.40;;;;;;;1.12;78.35;98215.52;1805992;79;21342;-66
2021/01/08 09:07:50;;;;;;;;;;;;;;;1.14;78.28;98210.18;1808454;79;20896;-66
2021/01/08 09:10:28;;;;;;;17.40;14.03;;;;;;;1.15;78.25;98210.13;1805912;79;20154;-66
2021/01/08 09:13:21;;;;;;;18.15;14.47;;;;;;;1.15;78.06;98209.23;1805838;78;20995;-66
2021/01/08 09:16:46;;;;;;;23.12;17.27;;;;;;;1.17;78.22;98204.78;1805883;79;20897;-66
2021/01/08 09:19:40;;;;;;;16.85;13.75;;;;;;;1.20;78.42;98207.30;1805980;79;21186;-67
2021/01/08 09:22:11;;;;;;;18.45;15.83;;;;;;;1.23;78.68;98207.19;1805758;79;20921;-67
2021/01/08 09:24:40;;;;;;;17.70;15.38;;;;;;;1.28;78.65;98207.91;1805790;79;21477;-66
2021/01/08 09:27:10;;;;;;;21.07;16.67;;;;;;;1.30;78.58;98202.09;1805800;79;20892;-65
2021/01/08 09:29:38;;;;;;;19.05;15.83;;;;;;;1.33;78.44;98207.29;1805813;79;20933;-66
2021/01/08 09:32:07;;;;;;;21.87;17.48;;;;;;;1.38;78.28;98209.30;1805381;79;21186;-66
2021/01/08 09:34:36;;;;;;;18.87;16.37;;;;;;;1.41;78.14;98207.88;1805765;79;20968;-66
2021/01/08 09:37:15;;;;;;;20.43;16.93;;;;;;;1.42;77.92;98205.64;1805888;79;21418;-65
2021/01/08 09:39:44;;;;;;;27.13;18.92;;;;;;;1.44;78.07;98205.12;1805723;79;20984;-66
2021/01/08 09:42:12;;;;;;;22.65;17.42;;;;;;;1.46;78.24;98205.06;1805942;79;20909;-66
2021/01/08 09:44:41;;;;;;;21.48;17.75;;;;;;;1.49;78.20;98201.45;1805781;79;21374;-65
2021/01/08 09:47:13;;;;;;;21.97;17.45;;;;;;;1.53;78.15;98199.97;1805749;79;20934;-66
2021/01/08 09:49:44;;;;;;;24.63;18.07;;;;;;;1.57;78.13;98204.69;1806025;78;21326;-66
2021/01/08 09:52:12;;;;;;;20.92;16.82;;;;;;;1.59;77.96;98194.89;1805848;79;21449;-67
2021/01/08 09:54:46;;;;;;;19.35;16.70;;;;;;;1.65;77.69;98193.82;1805803;79;20912;-65
2021/01/08 09:57:35;;;;;;;19.25;17.02;;;;;;;1.68;77.37;98197.68;1805819;79;21201;-66
2021/01/08 10:00:09;;;;;;;22.20;18.20;;;;;;;1.71;76.92;98189.16;1805813;79;20996;-67
2021/01/08 10:02:47;;;;;;;18.95;15.28;;;;;;;1.74;76.51;98186.39;1806787;79;20932;-66
2021/01/08 10:05:31;;;;;;;17.65;15.03;;;;;;;1.77;76.29;98190.25;1814895;79;20975;-66
2021/01/08 10:08:02;;;;;;;19.10;15.40;;;;;;;1.78;76.01;98186.70;1814991;79;26903;-66
2021/01/08 10:10:37;;;;;;;20.27;17.27;;;;;;;1.79;75.58;98181.78;1814958;79;21360;-66
2021/01/08 10:13:17;;;;;;;21.42;17.55;;;;;;;1.78;75.46;98170.81;1814845;79;21008;-66
2021/01/08 10:15:50;;;;;;;17.50;14.85;;;;;;;1.82;75.31;98173.34;1814910;78;21432;-65
2021/01/08 10:18:30;;;;;;;16.17;14.45;;;;;;;1.80;74.82;98168.95;1815042;79;21291;-67
2021/01/08 10:21:09;;;;;;;18.17;16.17;;;;;;;1.80;74.45;98162.34;1814902;79;20912;-66
2021/01/08 10:23:43;;;;;;;18.40;15.58;;;;;;;1.83;74.37;98156.51;1815022;78;22279;-66
2021/01/08 10:26:16;;;;;;;20.52;15.63;;;;;;;1.84;74.15;98151.63;1814989;79;20924;-66
2021/01/08 10:28:55;;;;;;;15.58;13.60;;;;;;;1.87;74.13;98151.52;1814974;79;21360;-65
2021/01/08 10:31:24;;;;;;;21.80;16.20;;;;;;;1.89;73.82;98144.36;1814884;79;20995;-66
2021/01/08 10:33:52;;;;;;;11.75;9.48;;;;;;;1.92;73.79;98137.62;1814854;79;21007;-67
2021/01/08 10:36:20;;;;;;;11.43;10.10;;;;;;;1.94;72.97;98132.69;1814883;79;21201;-67
2021/01/08 10:38:47;;;;;;;11.63;10.32;;;;;;;1.98;72.15;98130.77;1814763;79;20933;-65
2021/01/08 10:41:18;;;;;;;8.95;7.83;;;;;;;2.02;72.29;98125.77;1814889;79;20967;-67
2021/01/08 10:43:45;;;;;;;8.35;7.47;;;;;;;2.05;71.51;98116.81;1814854;79;20980;-67
2021/01/08 10:46:14;;;;;;;8.35;7.05;;;;;;;2.08;71.15;98112.28;1814976;79;21421;-66
2021/01/08 10:48:43;;;;;;;8.03;7.22;;;;;;;2.11;69.81;98120.11;1814834;79;21376;-66
2021/01/08 10:51:10;;;;;;;7.35;6.30;;;;;;;2.14;69.56;98113.80;1814860;79;20940;-66
2021/01/08 10:53:38;;;;;;;7.17;6.28;;;;;;;2.17;69.92;98119.84;1814871;79;20924;-65
2021/01/08 10:56:06;;;;;;;7.30;6.28;;;;;;;2.17;69.87;98114.53;1814889;78;21011;-66
2021/01/08 10:58:36;;;;;;;8.00;6.28;;;;;;;2.17;68.56;98117.66;1814819;79;20979;-65
2021/01/08 11:01:03;;;;;;;9.70;8.70;;;;;;;2.16;68.01;98115.48;1814873;79;21330;-65
2021/01/08 11:03:31;;;;;;;7.90;6.83;;;;;;;2.16;67.94;98115.48;1808981;79;20940;-67
2021/01/08 11:05:59;;;;;;;5.85;5.30;;;;;;;2.16;67.48;98107.97;1805805;79;21339;-66
2021/01/08 11:08:26;;;;;;;8.05;7.10;;;;;;;2.16;67.62;98110.18;1805675;79;20965;-65
2021/01/08 11:10:54;;;;;;;8.10;6.58;;;;;;;2.17;66.98;98107.06;1805874;79;20980;-66
2021/01/08 11:13:21;;;;;;;7.92;6.70;;;;;;;2.17;65.90;98105.73;1805740;79;21359;-64
2021/01/08 11:15:49;;;;;;;6.78;5.83;;;;;;;2.16;66.08;98102.23;1805677;79;20920;-65
2021/01/08 11:18:16;;;;;;;6.05;5.03;;;;;;;2.20;66.89;98115.36;1805715;79;20976;-68
2021/01/08 11:20:53;;;;;;;6.10;5.50;;;;;;;2.20;65.89;98115.36;1805690;78;20991;-68
2021/01/08 11:23:23;;;;;;;5.60;5.10;;;;;;;2.20;65.94;98116.21;1805706;79;21039;-66
2021/01/08 11:25:52;;;;;;;7.15;5.50;;;;;;;2.22;66.70;98118.80;1805503;79;21197;-66
2021/01/08 11:28:20;;;;;;;6.50;5.83;;;;;;;2.23;67.00;98112.59;1805649;79;20921;-66
2021/01/08 11:30:49;;;;;;;6.75;5.60;;;;;;;2.25;66.19;98116.03;1805843;79;20933;-66
2021/01/08 11:33:17;;;;;;;5.83;5.22;;;;;;;2.27;65.48;98112.84;1805775;79;21382;-66
2021/01/08 11:35:44;;;;;;;7.08;5.97;;;;;;;2.28;65.22;98115.43;1805705;79;20968;-67
2021/01/08 11:38:12;;;;;;;7.53;6.35;;;;;;;2.29;65.95;98109.69;1805593;79;21420;-66
2021/01/08 11:40:40;;;;;;;7.55;6.62;;;;;;;2.31;66.45;98119.76;1805690;79;20885;-66
2021/01/08 11:43:07;;;;;;;5.62;5.12;;;;;;;2.33;66.57;98117.90;1805799;79;21486;-65
2021/01/08 11:45:37;;;;;;;7.72;5.33;;;;;;;2.34;66.81;98116.52;1805488;79;20936;-66